createdAt,value
2022-10-15T00:00:08.214Z,100.00
2022-10-15T00:02:34.700Z,100.00
2022-10-15T00:05:01.346Z,100.00
2022-10-15T00:07:29.359Z,100.00
2022-10-15T00:09:55.788Z,100.00
2022-10-15T00:12:22.257Z,100.00
2022-10-15T00:14:48.639Z,100.00
2022-10-15T00:17:15.061Z,100.00
2022-10-15T00:19:41.484Z,100.00
2022-10-15T00:22:07.871Z,100.00
2022-10-15T00:24:34.286Z,100.00
2022-10-15T00:27:00.675Z,100.00
2022-10-15T00:29:27.147Z,100.00
2022-10-15T00:31:54.519Z,100.00
2022-10-15T00:34:20.908Z,100.00
2022-10-15T00:36:50.194Z,100.00
2022-10-15T00:39:17.092Z,100.00
2022-10-15T00:41:44.966Z,100.00
2022-10-15T00:44:28.842Z,100.00
2022-10-15T00:47:16.482Z,100.00
2022-10-15T00:49:55.435Z,100.00
2022-10-15T00:52:40.558Z,100.00
2022-10-15T00:55:22.895Z,100.00
2022-10-15T00:57:50.821Z,100.00
2022-10-15T01:00:18.432Z,100.00
2022-10-15T01:02:45.747Z,100.00
2022-10-15T01:05:15.013Z,100.00
2022-10-15T01:07:41.510Z,100.00
2022-10-15T01:10:10.548Z,100.00
2022-10-15T01:12:54.281Z,100.00
2022-10-15T01:15:39.853Z,100.00
2022-10-15T01:18:19.473Z,100.00
2022-10-15T01:21:13.760Z,100.00
2022-10-15T01:23:58.495Z,100.00
2022-10-15T01:26:37.090Z,100.00
2022-10-15T01:29:26.433Z,100.00
2022-10-15T01:32:17.725Z,100.00
2022-10-15T01:35:27.980Z,100.00
2022-10-15T01:38:03.419Z,100.00
2022-10-15T01:40:48.977Z,100.00
2022-10-15T01:43:30.158Z,100.00
2022-10-15T01:46:02.937Z,100.00
2022-10-15T01:48:31.607Z,100.00
2022-10-15T01:51:02.519Z,100.00
2022-10-15T01:53:29.626Z,100.00
2022-10-15T01:55:59.907Z,100.00
2022-10-15T01:58:28.726Z,100.00
2022-10-15T02:00:57.151Z,100.00
2022-10-15T02:03:23.801Z,100.00
2022-10-15T02:05:59.192Z,100.00
2022-10-15T02:08:42.330Z,100.00
2022-10-15T02:11:16.496Z,100.00
2022-10-15T02:13:52.614Z,100.00
2022-10-15T02:16:43.051Z,100.00
2022-10-15T02:19:18.323Z,100.00
2022-10-15T02:21:51.879Z,100.00
2022-10-15T02:24:23.904Z,100.00
2022-10-15T02:26:53.787Z,100.00
2022-10-15T02:29:23.815Z,100.00
2022-10-15T02:31:52.428Z,100.00
2022-10-15T02:34:22.423Z,100.00
2022-10-15T02:36:49.594Z,100.00
2022-10-15T02:39:24.251Z,100.00
2022-10-15T02:41:52.738Z,100.00
2022-10-15T02:44:19.743Z,100.00
2022-10-15T02:46:46.193Z,100.00
2022-10-15T02:49:12.562Z,100.00
2022-10-15T02:51:39.219Z,100.00
2022-10-15T02:54:07.066Z,100.00
2022-10-15T02:56:34.055Z,100.00
2022-10-15T02:59:00.523Z,100.00
2022-10-15T03:01:26.972Z,100.00
2022-10-15T03:03:53.568Z,100.00
2022-10-15T03:06:19.984Z,100.00
2022-10-15T03:08:46.480Z,100.00
2022-10-15T03:11:12.967Z,100.00
2022-10-15T03:13:39.593Z,100.00
2022-10-15T03:16:10.583Z,100.00
2022-10-15T03:18:40.472Z,100.00
2022-10-15T03:21:07.683Z,100.00
2022-10-15T03:26:05.697Z,100.00
2022-10-15T03:28:32.431Z,100.00
2022-10-15T03:30:59.385Z,100.00
2022-10-15T03:33:25.795Z,100.00
2022-10-15T03:35:52.808Z,100.00
2022-10-15T03:38:19.780Z,100.00
2022-10-15T03:40:46.396Z,100.00
2022-10-15T03:43:12.890Z,100.00
2022-10-15T03:45:39.394Z,100.00
2022-10-15T03:48:06.354Z,100.00
2022-10-15T03:50:33.022Z,100.00
2022-10-15T03:52:59.532Z,100.00
2022-10-15T03:55:25.898Z,100.00
2022-10-15T03:57:52.322Z,100.00
2022-10-15T04:00:18.856Z,100.00
2022-10-15T04:02:45.214Z,100.00
2022-10-15T04:05:11.669Z,100.00
2022-10-15T04:07:38.082Z,100.00
2022-10-15T04:10:04.676Z,100.00
2022-10-15T04:12:31.102Z,100.00
2022-10-15T04:14:57.484Z,100.00
2022-10-15T04:17:23.954Z,100.00
2022-10-15T04:19:50.347Z,100.00
2022-10-15T04:22:16.811Z,100.00
2022-10-15T04:24:43.337Z,100.00
2022-10-15T04:27:10.542Z,100.00
2022-10-15T04:29:37.063Z,100.00
2022-10-15T04:32:03.758Z,100.00
2022-10-15T04:34:30.260Z,100.00
2022-10-15T04:36:56.705Z,100.00
2022-10-15T04:39:23.074Z,100.00
2022-10-15T04:41:49.450Z,100.00
2022-10-15T04:44:15.863Z,100.00
2022-10-15T04:46:42.296Z,100.00
2022-10-15T04:49:08.810Z,100.00
2022-10-15T04:51:35.246Z,100.00
2022-10-15T04:54:01.748Z,100.00
2022-10-15T04:56:28.433Z,100.00
2022-10-15T04:58:54.827Z,100.00
2022-10-15T05:01:21.462Z,100.00
2022-10-15T05:03:48.935Z,100.00
2022-10-15T05:06:20.217Z,100.00
2022-10-15T05:08:47.958Z,100.00
2022-10-15T05:11:22.775Z,100.00
2022-10-15T05:13:49.629Z,100.00
2022-10-15T05:16:18.131Z,100.00
2022-10-15T05:18:46.383Z,100.00
2022-10-15T05:21:13.932Z,100.00
2022-10-15T05:23:40.925Z,100.00
2022-10-15T05:26:11.356Z,100.00
2022-10-15T05:28:37.928Z,100.00
2022-10-15T05:31:09.037Z,100.00
2022-10-15T05:33:36.071Z,100.00
2022-10-15T05:36:29.566Z,100.00
2022-10-15T05:38:58.520Z,100.00
2022-10-15T05:41:25.836Z,100.00
2022-10-15T05:43:54.098Z,100.00
2022-10-15T05:46:21.398Z,100.00
2022-10-15T05:48:56.199Z,100.00
2022-10-15T05:51:24.041Z,100.00
2022-10-15T05:53:57.823Z,100.00
2022-10-15T05:56:25.131Z,100.00
2022-10-15T05:58:51.997Z,100.00
2022-10-15T06:01:18.768Z,100.00
2022-10-15T06:03:45.232Z,100.00
2022-10-15T06:06:23.416Z,100.00
2022-10-15T06:08:50.788Z,100.00
2022-10-15T06:11:17.952Z,100.00
2022-10-15T06:13:45.355Z,100.00
2022-10-15T06:16:14.726Z,100.00
2022-10-15T06:18:43.029Z,100.00
2022-10-15T06:21:11.100Z,100.00
2022-10-15T06:23:37.719Z,100.00
2022-10-15T06:26:06.586Z,100.00
2022-10-15T06:28:33.517Z,100.00
2022-10-15T06:31:01.279Z,100.00
2022-10-15T06:33:28.876Z,100.00
2022-10-15T06:35:55.603Z,100.00
2022-10-15T06:38:22.050Z,100.00
2022-10-15T06:40:48.436Z,100.00
2022-10-15T06:43:14.946Z,100.00
2022-10-15T06:45:42.541Z,100.00
2022-10-15T06:48:09.355Z,100.00
2022-10-15T06:50:37.193Z,100.00
2022-10-15T06:53:04.381Z,100.00
2022-10-15T06:55:31.111Z,100.00
2022-10-15T06:57:57.871Z,100.00
2022-10-15T07:00:24.830Z,100.00
2022-10-15T07:02:51.481Z,100.00
2022-10-15T07:05:18.851Z,100.00
2022-10-15T07:07:55.817Z,100.00
2022-10-15T07:10:23.125Z,100.00
2022-10-15T07:12:49.560Z,100.00
2022-10-15T07:15:16.920Z,100.00
2022-10-15T07:17:51.180Z,100.00
2022-10-15T07:20:21.703Z,100.00
2022-10-15T07:22:50.658Z,100.00
2022-10-15T07:25:17.280Z,100.00
2022-10-15T07:27:43.660Z,100.00
2022-10-15T07:30:10.571Z,100.00
2022-10-15T07:32:37.089Z,100.00
2022-10-15T07:35:03.803Z,100.00
2022-10-15T07:37:30.239Z,100.00
2022-10-15T07:39:56.631Z,100.00
2022-10-15T07:42:23.060Z,100.00
2022-10-15T07:44:49.513Z,100.00
2022-10-15T07:47:15.994Z,100.00
2022-10-15T07:49:42.381Z,100.00
2022-10-15T07:52:08.856Z,100.00
2022-10-15T07:54:35.892Z,100.00
2022-10-15T07:57:02.387Z,100.00
2022-10-15T07:59:28.941Z,100.00
2022-10-15T08:01:55.406Z,100.00
2022-10-15T08:04:21.829Z,100.00
2022-10-15T08:06:49.625Z,100.00
2022-10-15T08:09:16.776Z,100.00
2022-10-15T08:11:43.673Z,100.00
2022-10-15T08:14:10.269Z,100.00
2022-10-15T08:16:36.715Z,100.00
2022-10-15T08:19:03.604Z,100.00
2022-10-15T08:21:30.160Z,100.00
2022-10-15T08:23:56.627Z,100.00
2022-10-15T08:26:23.045Z,100.00
2022-10-15T08:28:51.007Z,100.00
2022-10-15T08:31:19.151Z,100.00
2022-10-15T08:33:46.398Z,99.84
2022-10-15T08:36:12.902Z,100.00
2022-10-15T08:38:39.288Z,100.00
2022-10-15T08:41:19.801Z,100.00
2022-10-15T08:43:46.979Z,100.00
2022-10-15T08:46:22.826Z,100.00
2022-10-15T08:48:53.888Z,100.00
2022-10-15T08:51:24.270Z,99.30
2022-10-15T08:53:57.949Z,96.90
2022-10-15T08:56:26.845Z,97.55
2022-10-15T08:59:05.402Z,97.86
2022-10-15T09:01:44.033Z,97.36
2022-10-15T09:04:37.963Z,98.96
2022-10-15T09:07:18.253Z,99.42
2022-10-15T09:10:12.326Z,98.66
2022-10-15T09:12:44.491Z,98.77
2022-10-15T09:15:15.219Z,98.69
2022-10-15T09:17:43.945Z,98.84
2022-10-15T09:20:18.903Z,98.28
2022-10-15T09:25:27.462Z,99.11
2022-10-15T09:27:58.934Z,98.42
2022-10-15T09:30:38.431Z,97.33
2022-10-15T09:33:32.698Z,96.88
2022-10-15T09:36:08.230Z,96.80
2022-10-15T09:38:52.664Z,95.81
2022-10-15T09:41:19.001Z,96.82
2022-10-15T09:43:49.580Z,96.15
2022-10-15T09:46:15.960Z,94.03
2022-10-15T09:49:18.671Z,92.73
2022-10-15T09:52:10.465Z,93.91
2022-10-15T09:54:51.790Z,90.94
2022-10-15T09:57:22.196Z,91.26
2022-10-15T10:00:02.787Z,92.35
2022-10-15T10:02:30.085Z,92.12
2022-10-15T10:04:56.870Z,92.06
2022-10-15T10:07:32.650Z,93.61
2022-10-15T10:10:07.064Z,94.44
2022-10-15T10:12:37.445Z,94.72
2022-10-15T10:15:22.255Z,94.89
2022-10-15T10:17:56.649Z,94.75
2022-10-15T10:20:25.820Z,94.85
2022-10-15T10:23:00.853Z,93.80
2022-10-15T10:25:27.264Z,91.86
2022-10-15T10:27:55.634Z,92.78
2022-10-15T10:30:22.599Z,94.15
2022-10-15T10:32:56.530Z,93.12
2022-10-15T10:35:27.232Z,92.60
2022-10-15T10:37:53.841Z,92.31
2022-10-15T10:40:34.407Z,91.72
2022-10-15T10:43:12.813Z,92.63
2022-10-15T10:45:39.329Z,92.14
2022-10-15T10:48:19.809Z,91.15
2022-10-15T10:50:46.365Z,89.98
2022-10-15T10:53:24.366Z,88.66
2022-10-15T10:55:54.325Z,90.41
2022-10-15T10:58:26.414Z,89.02
2022-10-15T11:00:55.110Z,89.09
2022-10-15T11:03:34.071Z,88.81
2022-10-15T11:06:32.441Z,88.59
2022-10-15T11:09:23.898Z,88.15
2022-10-15T11:12:40.186Z,83.89
2022-10-15T11:15:33.731Z,82.59
2022-10-15T11:18:03.037Z,82.51
2022-10-15T11:21:01.738Z,82.83
2022-10-15T11:24:02.262Z,84.35
2022-10-15T11:27:11.784Z,85.08
2022-10-15T11:30:02.130Z,85.66
2022-10-15T11:33:02.262Z,85.79
2022-10-15T11:35:54.427Z,84.67
2022-10-15T11:38:46.522Z,83.16
2022-10-15T11:42:04.981Z,83.97
2022-10-15T11:44:46.288Z,82.86
2022-10-15T11:47:37.518Z,81.84
2022-10-15T11:50:17.126Z,81.35
2022-10-15T11:53:14.640Z,82.60
2022-10-15T11:55:53.437Z,85.94
2022-10-15T11:58:34.126Z,82.70
2022-10-15T12:01:12.281Z,83.09
2022-10-15T12:04:17.591Z,79.69
2022-10-15T12:06:49.753Z,80.87
2022-10-15T12:09:24.514Z,79.53
2022-10-15T12:12:10.646Z,81.54
2022-10-15T12:14:40.671Z,80.66
2022-10-15T12:17:22.452Z,83.02
2022-10-15T12:19:59.002Z,84.19
2022-10-15T12:22:56.824Z,84.65
2022-10-15T12:25:35.498Z,85.03
2022-10-15T12:28:05.023Z,83.92
2022-10-15T12:30:34.457Z,84.55
2022-10-15T12:33:02.621Z,83.63
2022-10-15T12:35:35.632Z,83.65
2022-10-15T12:38:20.853Z,85.13
2022-10-15T12:40:55.214Z,81.11
2022-10-15T12:43:22.050Z,76.85
2022-10-15T12:45:52.322Z,79.26
2022-10-15T12:48:27.724Z,81.09
2022-10-15T12:51:35.201Z,80.71
2022-10-15T12:54:02.435Z,80.22
2022-10-15T12:56:42.777Z,78.65
2022-10-15T12:59:30.831Z,78.92
2022-10-15T13:01:57.289Z,82.67
2022-10-15T13:04:23.855Z,77.57
2022-10-15T13:06:51.138Z,76.29
2022-10-15T13:09:29.337Z,77.02
2022-10-15T13:11:58.574Z,75.21
2022-10-15T13:14:30.841Z,77.22
2022-10-15T13:16:58.214Z,76.03
2022-10-15T13:19:39.586Z,73.37
2022-10-15T13:22:19.843Z,74.51
2022-10-15T13:24:46.401Z,76.35
2022-10-15T13:27:21.735Z,80.53
2022-10-15T13:30:16.550Z,76.35
2022-10-15T13:32:47.933Z,78.29
2022-10-15T13:35:20.621Z,77.65
2022-10-15T13:37:48.486Z,77.47
2022-10-15T13:40:24.345Z,82.70
2022-10-15T13:43:04.329Z,80.09
2022-10-15T13:45:31.194Z,80.90
2022-10-15T13:47:57.889Z,82.80
2022-10-15T13:50:32.825Z,82.53
2022-10-15T13:53:03.084Z,83.59
2022-10-15T13:55:33.702Z,83.27
2022-10-15T13:58:23.510Z,84.55
2022-10-15T14:01:00.550Z,83.26
2022-10-15T14:03:31.132Z,85.17
2022-10-15T14:06:09.712Z,89.44
2022-10-15T14:08:37.196Z,90.92
2022-10-15T14:11:03.833Z,86.80
2022-10-15T14:13:30.218Z,87.27
2022-10-15T14:16:17.990Z,86.18
2022-10-15T14:19:09.073Z,85.77
2022-10-15T14:21:37.599Z,87.34
2022-10-15T14:24:17.418Z,82.40
2022-10-15T14:26:44.521Z,87.23
2022-10-15T14:29:27.193Z,90.12
2022-10-15T14:31:53.729Z,91.47
2022-10-15T14:34:30.879Z,91.53
2022-10-15T14:36:57.531Z,91.76
2022-10-15T14:39:33.089Z,87.16
2022-10-15T14:42:02.305Z,85.82
2022-10-15T14:44:46.804Z,84.95
2022-10-15T14:47:22.851Z,83.33
2022-10-15T14:49:53.818Z,84.82
2022-10-15T14:52:22.652Z,85.95
2022-10-15T14:55:24.474Z,83.25
2022-10-15T14:57:52.350Z,84.35
2022-10-15T15:00:27.170Z,85.17
2022-10-15T15:02:58.307Z,87.42
2022-10-15T15:05:28.948Z,87.82
2022-10-15T15:07:57.099Z,88.49
2022-10-15T15:10:27.046Z,90.55
2022-10-15T15:12:56.222Z,90.37
2022-10-15T15:15:27.372Z,91.30
2022-10-15T15:17:54.014Z,92.18
2022-10-15T15:20:21.267Z,92.47
2022-10-15T15:22:50.330Z,92.88
2022-10-15T15:25:22.578Z,93.47
2022-10-15T15:27:48.940Z,93.88
2022-10-15T15:30:21.072Z,94.53
2022-10-15T15:32:48.083Z,94.62
2022-10-15T15:35:34.263Z,95.21
2022-10-15T15:38:00.643Z,96.25
2022-10-15T15:40:27.117Z,96.73
2022-10-15T15:42:55.849Z,96.23
2022-10-15T15:45:24.710Z,97.09
2022-10-15T15:47:51.515Z,97.38
2022-10-15T15:50:20.493Z,96.96
2022-10-15T15:52:47.503Z,97.65
2022-10-15T15:55:14.381Z,97.15
2022-10-15T15:57:41.271Z,97.07
2022-10-15T16:00:09.877Z,96.54
2022-10-15T16:02:37.178Z,96.68
2022-10-15T16:05:08.322Z,96.41
2022-10-15T16:07:35.447Z,95.58
2022-10-15T16:10:03.945Z,96.59
2022-10-15T16:12:30.397Z,96.98
2022-10-15T16:17:28.221Z,97.47
2022-10-15T16:19:54.763Z,97.87
2022-10-15T16:22:21.180Z,97.41
2022-10-15T16:24:47.557Z,97.72
2022-10-15T16:27:13.917Z,98.17
2022-10-15T16:29:40.348Z,99.60
2022-10-15T16:32:06.827Z,99.67
2022-10-15T16:34:33.314Z,100.00
2022-10-15T16:36:59.772Z,100.00
2022-10-15T16:39:26.211Z,99.99
2022-10-15T16:41:52.588Z,100.00
2022-10-15T16:44:18.999Z,100.00
2022-10-15T16:46:45.359Z,100.00
2022-10-15T16:49:11.715Z,100.00
2022-10-15T16:51:41.281Z,100.00
2022-10-15T16:54:15.430Z,100.00
2022-10-15T16:56:42.327Z,100.00
2022-10-15T16:59:09.184Z,100.00
2022-10-15T17:01:36.572Z,100.00
2022-10-15T17:04:03.290Z,100.00
2022-10-15T17:06:30.692Z,100.00
2022-10-15T17:08:59.741Z,100.00
2022-10-15T17:11:37.021Z,100.00
2022-10-15T17:14:08.875Z,100.00
2022-10-15T17:16:40.657Z,100.00
2022-10-15T17:19:08.915Z,100.00
2022-10-15T17:21:36.579Z,100.00
2022-10-15T17:24:05.931Z,100.00
2022-10-15T17:26:40.267Z,100.00
2022-10-15T17:29:13.448Z,100.00
2022-10-15T17:31:40.114Z,100.00
2022-10-15T17:34:08.382Z,100.00
2022-10-15T17:36:44.905Z,100.00
2022-10-15T17:39:13.259Z,100.00
2022-10-15T17:41:40.088Z,100.00
2022-10-15T17:44:06.536Z,100.00
2022-10-15T17:46:33.068Z,100.00
2022-10-15T17:49:00.486Z,100.00
2022-10-15T17:51:29.970Z,100.00
2022-10-15T17:53:57.459Z,100.00
2022-10-15T17:56:26.491Z,100.00
2022-10-15T17:58:53.705Z,100.00
2022-10-15T18:01:39.403Z,100.00
2022-10-15T18:04:12.606Z,100.00
2022-10-15T18:06:44.068Z,100.00
2022-10-15T18:09:10.479Z,100.00
2022-10-15T18:11:36.993Z,100.00
2022-10-15T18:14:03.975Z,100.00
2022-10-15T18:16:30.457Z,100.00
2022-10-15T18:18:56.876Z,100.00
2022-10-15T18:21:25.029Z,100.00
2022-10-15T18:23:51.570Z,100.00
2022-10-15T18:26:21.097Z,100.00
2022-10-15T18:28:50.121Z,100.00
2022-10-15T18:31:17.474Z,100.00
2022-10-15T18:33:46.475Z,100.00
2022-10-15T18:36:19.041Z,100.00
2022-10-15T18:38:45.574Z,100.00
2022-10-15T18:41:24.149Z,100.00
2022-10-15T18:43:54.835Z,100.00
2022-10-15T18:46:22.065Z,100.00
2022-10-15T18:48:48.952Z,100.00
2022-10-15T18:51:15.884Z,100.00
2022-10-15T18:53:42.301Z,100.00
2022-10-15T18:56:10.137Z,100.00
2022-10-15T18:58:39.014Z,100.00
2022-10-15T19:01:36.518Z,100.00
2022-10-15T19:04:09.639Z,100.00
2022-10-15T19:06:37.056Z,100.00
2022-10-15T19:09:06.445Z,100.00
2022-10-15T19:11:33.717Z,100.00
2022-10-15T19:14:01.247Z,100.00
2022-10-15T19:16:28.215Z,100.00
2022-10-15T19:18:54.658Z,100.00
2022-10-15T19:21:21.171Z,100.00
2022-10-15T19:23:47.956Z,100.00
2022-10-15T19:26:14.795Z,100.00
2022-10-15T19:28:41.421Z,100.00
2022-10-15T19:31:09.614Z,100.00
2022-10-15T19:33:37.768Z,100.00
2022-10-15T19:36:04.626Z,100.00
2022-10-15T19:38:31.115Z,100.00
2022-10-15T19:41:01.689Z,100.00
2022-10-15T19:43:28.169Z,100.00
2022-10-15T19:45:54.561Z,100.00
2022-10-15T19:48:22.873Z,100.00
2022-10-15T19:50:49.350Z,100.00
2022-10-15T19:53:17.006Z,100.00
2022-10-15T19:55:44.604Z,100.00
2022-10-15T19:58:11.095Z,100.00
2022-10-15T20:00:37.540Z,100.00
2022-10-15T20:03:04.102Z,100.00
2022-10-15T20:05:30.565Z,100.00
2022-10-15T20:07:56.938Z,100.00
2022-10-15T20:10:25.970Z,100.00
2022-10-15T20:12:53.085Z,100.00
2022-10-15T20:15:19.512Z,100.00
2022-10-15T20:17:46.756Z,100.00
2022-10-15T20:20:13.159Z,100.00
2022-10-15T20:22:39.543Z,100.00
2022-10-15T20:25:06.029Z,100.00
2022-10-15T20:27:32.825Z,100.00
2022-10-15T20:29:59.212Z,100.00
2022-10-15T20:32:41.235Z,100.00
2022-10-15T20:35:08.411Z,100.00
2022-10-15T20:37:35.217Z,100.00
2022-10-15T20:40:01.809Z,100.00
2022-10-15T20:42:28.448Z,100.00
2022-10-15T20:44:55.075Z,100.00
2022-10-15T20:47:23.348Z,100.00
2022-10-15T20:49:52.222Z,100.00
2022-10-15T20:52:19.199Z,100.00
2022-10-15T20:54:45.748Z,100.00
2022-10-15T20:57:12.661Z,100.00
2022-10-15T20:59:39.108Z,100.00
2022-10-15T21:02:05.526Z,100.00
2022-10-15T21:04:31.934Z,100.00
2022-10-15T21:06:58.328Z,100.00
2022-10-15T21:09:24.865Z,100.00
2022-10-15T21:11:51.246Z,100.00
2022-10-15T21:14:17.657Z,100.00
2022-10-15T21:16:44.188Z,100.00
2022-10-15T21:19:10.585Z,100.00
2022-10-15T21:21:37.075Z,100.00
2022-10-15T21:24:03.648Z,100.00
2022-10-15T21:26:30.050Z,100.00
2022-10-15T21:28:58.277Z,100.00
2022-10-15T21:31:25.996Z,100.00
2022-10-15T21:33:54.072Z,100.00
2022-10-15T21:36:27.959Z,100.00
2022-10-15T21:38:56.818Z,100.00
2022-10-15T21:41:24.833Z,100.00
2022-10-15T21:43:51.759Z,100.00
2022-10-15T21:46:18.553Z,100.00
2022-10-15T21:48:45.399Z,100.00
2022-10-15T21:51:14.442Z,100.00
2022-10-15T21:53:41.387Z,100.00
2022-10-15T21:56:10.948Z,100.00
2022-10-15T21:58:38.834Z,100.00
2022-10-15T22:01:09.698Z,100.00
2022-10-15T22:03:36.222Z,100.00
2022-10-15T22:06:02.642Z,100.00
2022-10-15T22:08:29.322Z,100.00
2022-10-15T22:10:55.750Z,100.00
2022-10-15T22:13:22.137Z,100.00
2022-10-15T22:15:48.521Z,100.00
2022-10-15T22:18:14.883Z,100.00
2022-10-15T22:23:12.698Z,100.00
2022-10-15T22:25:39.067Z,100.00
2022-10-15T22:28:05.486Z,100.00
2022-10-15T22:30:35.823Z,100.00
2022-10-15T22:33:02.204Z,100.00
2022-10-15T22:35:28.693Z,100.00
2022-10-15T22:37:57.890Z,100.00
2022-10-15T22:40:24.775Z,100.00
2022-10-15T22:42:51.142Z,100.00
2022-10-15T22:45:17.538Z,100.00
2022-10-15T22:47:44.065Z,100.00
2022-10-15T22:50:10.483Z,100.00
2022-10-15T22:52:36.873Z,100.00
2022-10-15T22:55:03.426Z,100.00
2022-10-15T22:57:29.802Z,100.00
2022-10-15T22:59:58.673Z,100.00
2022-10-15T23:02:26.074Z,100.00
2022-10-15T23:04:52.653Z,100.00
2022-10-15T23:07:19.043Z,100.00
2022-10-15T23:09:45.449Z,100.00
2022-10-15T23:12:11.813Z,100.00
2022-10-15T23:14:38.369Z,100.00
2022-10-15T23:17:04.751Z,100.00
2022-10-15T23:19:32.043Z,100.00
2022-10-15T23:21:59.919Z,100.00
2022-10-15T23:24:27.411Z,100.00
2022-10-15T23:26:53.824Z,100.00
2022-10-15T23:29:25.286Z,100.00
2022-10-15T23:31:52.218Z,100.00
2022-10-15T23:34:21.400Z,100.00
2022-10-15T23:36:48.339Z,100.00
2022-10-15T23:39:20.735Z,100.00
2022-10-15T23:41:47.595Z,100.00
2022-10-15T23:44:14.035Z,100.00
2022-10-15T23:46:40.835Z,100.00
2022-10-15T23:49:07.283Z,100.00
2022-10-15T23:51:36.939Z,100.00
2022-10-15T23:54:09.876Z,100.00
2022-10-15T23:56:36.225Z,100.00
2022-10-15T23:59:02.716Z,100.00
